createdAt,value
2023-04-17T00:00:06.150Z,99760.88
2023-04-17T00:01:08.519Z,99761.84
2023-04-17T00:02:10.793Z,99764.78
2023-04-17T00:03:14.219Z,99761.25
2023-04-17T00:04:16.660Z,99765.84
2023-04-17T00:05:23.078Z,99775.69
2023-04-17T00:06:27.299Z,99767.94
2023-04-17T00:07:29.542Z,99766.31
2023-04-17T00:08:32.642Z,99767.13
2023-04-17T00:09:34.844Z,99773.19
2023-04-17T00:10:37.026Z,99768.78
2023-04-17T00:11:39.512Z,99770.69
2023-04-17T00:12:41.663Z,99775.06
2023-04-17T00:13:44.019Z,99767.41
2023-04-17T00:14:46.195Z,99774.34
2023-04-17T00:15:48.381Z,99765.44
2023-04-17T00:16:50.795Z,99769.03
2023-04-17T00:17:53.008Z,99773.38
2023-04-17T00:18:55.693Z,99762.63
2023-04-17T00:19:57.906Z,99770.63
2023-04-17T00:21:00.220Z,99770.69
2023-04-17T00:22:02.545Z,99764.47
2023-04-17T00:23:04.773Z,99770.03
2023-04-17T00:24:07.264Z,99771.53
2023-04-17T00:25:14.726Z,99763.50
2023-04-17T00:26:16.969Z,99762.81
2023-04-17T00:27:19.340Z,99755.88
2023-04-17T00:28:21.536Z,99761.84
2023-04-17T00:29:24.175Z,99758.06
2023-04-17T00:30:26.348Z,99759.66
2023-04-17T00:31:28.685Z,99753.19
2023-04-17T00:32:31.563Z,99751.22
2023-04-17T00:33:34.218Z,99751.69
2023-04-17T00:34:36.373Z,99746.25
2023-04-17T00:35:38.556Z,99744.28
2023-04-17T00:36:40.859Z,99745.34
2023-04-17T00:37:43.056Z,99741.81
2023-04-17T00:38:45.374Z,99745.13
2023-04-17T00:39:47.554Z,99753.09
2023-04-17T00:40:51.643Z,99740.69
2023-04-17T00:41:54.276Z,99742.50
2023-04-17T00:43:03.985Z,99746.00
2023-04-17T00:44:06.449Z,99753.94
2023-04-17T00:45:10.916Z,99752.53
2023-04-17T00:46:13.570Z,99736.66
2023-04-17T00:47:15.838Z,99749.56
2023-04-17T00:48:18.519Z,99746.75
2023-04-17T00:49:20.762Z,99739.19
2023-04-17T00:50:23.330Z,99747.81
2023-04-17T00:51:25.768Z,99746.91
2023-04-17T00:52:29.935Z,99741.63
2023-04-17T00:53:32.893Z,99731.81
2023-04-17T00:54:35.453Z,99745.91
2023-04-17T00:55:39.445Z,99737.34
2023-04-17T00:56:43.613Z,99746.03
2023-04-17T00:57:48.071Z,99750.38
2023-04-17T00:58:51.015Z,99745.00
2023-04-17T00:59:54.186Z,99745.63
2023-04-17T01:00:56.392Z,99744.59
2023-04-17T01:01:59.517Z,99745.53
2023-04-17T01:03:02.044Z,99740.38
2023-04-17T01:04:07.577Z,99743.63
2023-04-17T01:05:10.199Z,99738.03
2023-04-17T01:06:12.789Z,99748.44
2023-04-17T01:07:17.370Z,99737.56
2023-04-17T01:08:19.985Z,99735.94
2023-04-17T01:09:22.907Z,99739.34
2023-04-17T01:10:25.187Z,99744.88
2023-04-17T01:11:28.234Z,99739.25
2023-04-17T01:12:31.686Z,99739.00
2023-04-17T01:13:34.115Z,99736.56
2023-04-17T01:14:36.606Z,99731.03
2023-04-17T01:15:38.814Z,99740.78
2023-04-17T01:16:42.060Z,99732.88
2023-04-17T01:17:44.371Z,99742.41
2023-04-17T01:18:48.210Z,99730.69
2023-04-17T01:19:50.686Z,99742.41
2023-04-17T01:20:52.823Z,99726.78
2023-04-17T01:21:55.210Z,99733.13
2023-04-17T01:22:59.205Z,99735.78
2023-04-17T01:24:04.626Z,99734.59
2023-04-17T01:25:07.151Z,99732.63
2023-04-17T01:26:16.524Z,99727.03
2023-04-17T01:27:22.292Z,99725.59
2023-04-17T01:28:24.562Z,99731.69
2023-04-17T01:29:26.865Z,99731.59
2023-04-17T01:30:30.615Z,99733.91
2023-04-17T01:31:42.244Z,99718.94
2023-04-17T01:32:44.403Z,99740.84
2023-04-17T01:33:47.081Z,99736.53
2023-04-17T01:34:49.414Z,99734.66
2023-04-17T01:35:51.657Z,99732.75
2023-04-17T01:36:54.396Z,99732.16
2023-04-17T01:37:56.606Z,99737.44
2023-04-17T01:38:58.977Z,99728.13
2023-04-17T01:40:01.214Z,99735.06
2023-04-17T01:41:09.573Z,99732.41
2023-04-17T01:42:11.840Z,99729.84
2023-04-17T01:43:14.084Z,99735.41
2023-04-17T01:44:16.223Z,99737.34
2023-04-17T01:45:18.393Z,99738.88
2023-04-17T01:46:20.912Z,99740.28
2023-04-17T01:47:24.490Z,99741.97
2023-04-17T01:48:27.442Z,99733.03
2023-04-17T01:49:29.762Z,99736.28
2023-04-17T01:50:31.991Z,99736.22
2023-04-17T01:51:34.195Z,99737.63
2023-04-17T01:52:36.495Z,99738.59
2023-04-17T01:53:39.449Z,99728.75
2023-04-17T01:54:41.821Z,99733.03
2023-04-17T01:55:44.393Z,99740.00
2023-04-17T01:56:46.668Z,99732.97
2023-04-17T01:57:49.807Z,99732.03
2023-04-17T01:58:52.052Z,99726.56
2023-04-17T01:59:55.974Z,99735.28
2023-04-17T02:02:10.119Z,99734.97
2023-04-17T02:03:12.776Z,99739.41
2023-04-17T02:04:15.373Z,99733.97
2023-04-17T02:05:17.732Z,99735.66
2023-04-17T02:06:19.995Z,99733.22
2023-04-17T02:07:22.676Z,99735.81
2023-04-17T02:08:24.982Z,99738.47
2023-04-17T02:09:27.240Z,99733.19
2023-04-17T02:10:29.924Z,99735.94
2023-04-17T02:11:32.144Z,99738.78
2023-04-17T02:12:34.294Z,99733.19
2023-04-17T02:13:36.579Z,99737.69
2023-04-17T02:14:38.773Z,99738.59
2023-04-17T02:15:41.835Z,99737.56
2023-04-17T02:16:45.716Z,99729.50
2023-04-17T02:17:47.872Z,99738.09
2023-04-17T02:18:51.344Z,99731.00
2023-04-17T02:19:53.669Z,99739.03
2023-04-17T02:20:55.872Z,99737.31
2023-04-17T02:21:57.998Z,99733.78
2023-04-17T02:23:01.769Z,99737.16
2023-04-17T02:24:06.810Z,99734.56
2023-04-17T02:25:09.210Z,99741.41
2023-04-17T02:26:11.536Z,99737.19
2023-04-17T02:27:13.697Z,99737.19
2023-04-17T02:28:18.921Z,99733.66
2023-04-17T02:29:21.163Z,99740.72
2023-04-17T02:30:27.121Z,99742.44
2023-04-17T02:31:31.644Z,99739.84
2023-04-17T02:32:34.157Z,99745.25
2023-04-17T02:33:37.692Z,99743.06
2023-04-17T02:34:40.639Z,99746.47
2023-04-17T02:35:42.935Z,99749.06
2023-04-17T02:36:45.211Z,99752.56
2023-04-17T02:37:48.841Z,99744.66
2023-04-17T02:38:51.116Z,99754.28
2023-04-17T02:39:54.327Z,99746.44
2023-04-17T02:40:57.708Z,99737.63
2023-04-17T02:42:02.012Z,99751.75
2023-04-17T02:43:04.821Z,99741.31
2023-04-17T02:44:07.086Z,99750.91
2023-04-17T02:45:10.400Z,99752.63
2023-04-17T02:46:12.640Z,99741.19
2023-04-17T02:47:14.873Z,99742.34
2023-04-17T02:48:17.911Z,99745.03
2023-04-17T02:49:20.168Z,99749.38
2023-04-17T02:50:22.508Z,99748.50
2023-04-17T02:51:35.684Z,99755.28
2023-04-17T02:52:38.043Z,99750.91
2023-04-17T02:53:41.116Z,99749.13
2023-04-17T02:54:43.476Z,99741.31
2023-04-17T02:55:46.505Z,99746.47
2023-04-17T02:56:52.916Z,99735.25
2023-04-17T02:57:55.290Z,99743.00
2023-04-17T02:58:57.506Z,99740.72
2023-04-17T03:00:01.346Z,99741.59
2023-04-17T03:01:04.191Z,99738.34
2023-04-17T03:02:11.437Z,99744.66
2023-04-17T03:03:14.039Z,99745.56
2023-04-17T03:04:16.596Z,99744.00
2023-04-17T03:05:20.275Z,99750.78
2023-04-17T03:06:24.066Z,99751.59
2023-04-17T03:07:27.476Z,99738.69
2023-04-17T03:08:32.571Z,99753.41
2023-04-17T03:09:35.317Z,99748.09
2023-04-17T03:10:39.371Z,99744.75
2023-04-17T03:11:41.514Z,99736.75
2023-04-17T03:12:43.720Z,99747.25
2023-04-17T03:13:48.985Z,99754.28
2023-04-17T03:14:51.927Z,99750.69
2023-04-17T03:15:54.083Z,99747.34
2023-04-17T03:16:56.648Z,99754.06
2023-04-17T03:17:59.048Z,99750.75
2023-04-17T03:19:03.132Z,99763.72
2023-04-17T03:20:07.535Z,99755.00
2023-04-17T03:21:09.937Z,99748.91
2023-04-17T03:22:13.391Z,99756.75
2023-04-17T03:23:16.014Z,99745.25
2023-04-17T03:24:18.199Z,99746.25
2023-04-17T03:25:20.512Z,99748.97
2023-04-17T03:26:29.593Z,99751.75
2023-04-17T03:27:34.249Z,99755.31
2023-04-17T03:28:36.980Z,99756.13
2023-04-17T03:29:39.879Z,99746.50
2023-04-17T03:30:42.134Z,99753.41
2023-04-17T03:31:44.703Z,99748.09
2023-04-17T03:32:47.263Z,99748.97
2023-04-17T03:33:49.897Z,99749.84
2023-04-17T03:34:52.466Z,99749.81
2023-04-17T03:35:54.680Z,99753.38
2023-04-17T03:36:57.092Z,99758.59
2023-04-17T03:37:59.266Z,99757.69
2023-04-17T03:39:01.671Z,99749.88
2023-04-17T03:40:06.439Z,99751.63
2023-04-17T03:41:08.895Z,99753.41
2023-04-17T03:42:14.393Z,99757.72
2023-04-17T03:43:16.543Z,99762.22
2023-04-17T03:44:19.146Z,99766.56
2023-04-17T03:45:21.296Z,99761.34
2023-04-17T03:46:23.530Z,99757.22
2023-04-17T03:47:25.829Z,99758.00
2023-04-17T03:48:28.061Z,99752.59
2023-04-17T03:49:30.438Z,99764.00
2023-04-17T03:50:32.650Z,99760.25
2023-04-17T03:51:35.792Z,99769.84
2023-04-17T03:52:46.515Z,99762.91
2023-04-17T03:53:49.286Z,99763.88
2023-04-17T03:54:51.734Z,99761.25
2023-04-17T03:55:54.176Z,99764.72
2023-04-17T03:57:03.942Z,99767.41
2023-04-17T03:58:06.882Z,99765.41
2023-04-17T03:59:09.476Z,99767.06
2023-04-17T04:00:17.216Z,99768.13
2023-04-17T04:01:28.284Z,99768.28
2023-04-17T04:02:48.071Z,99769.03
2023-04-17T04:03:55.584Z,99773.50
2023-04-17T04:04:58.499Z,99771.66
2023-04-17T04:06:00.731Z,99767.28
2023-04-17T04:07:03.725Z,99758.50
2023-04-17T04:08:06.233Z,99766.31
2023-04-17T04:09:20.691Z,99769.91
2023-04-17T04:10:23.097Z,99768.13
2023-04-17T04:11:25.417Z,99767.59
2023-04-17T04:12:27.743Z,99773.69
2023-04-17T04:13:29.916Z,99777.91
2023-04-17T04:14:35.418Z,99771.03
2023-04-17T04:15:39.120Z,99778.97
2023-04-17T04:16:42.182Z,99772.63
2023-04-17T04:17:46.994Z,99779.66
2023-04-17T04:18:49.349Z,99768.31
2023-04-17T04:19:53.188Z,99776.06
2023-04-17T04:20:55.743Z,99778.78
2023-04-17T04:22:10.307Z,99774.34
2023-04-17T04:23:21.188Z,99776.97
2023-04-17T04:24:25.468Z,99781.53
2023-04-17T04:25:28.635Z,99774.53
2023-04-17T04:26:49.476Z,99779.78
2023-04-17T04:27:53.538Z,99779.00
2023-04-17T04:29:00.394Z,99786.00
2023-04-17T04:30:14.037Z,99783.50
2023-04-17T04:31:18.759Z,99781.72
2023-04-17T04:32:21.965Z,99777.34
2023-04-17T04:33:25.658Z,99780.00
2023-04-17T04:34:29.807Z,99781.53
2023-04-17T04:35:32.023Z,99777.97
2023-04-17T04:36:36.315Z,99788.38
2023-04-17T04:37:47.862Z,99779.53
2023-04-17T04:38:50.336Z,99783.88
2023-04-17T04:40:02.066Z,99785.53
2023-04-17T04:41:09.942Z,99786.47
2023-04-17T04:42:13.476Z,99790.06
2023-04-17T04:43:32.064Z,99785.69
2023-04-17T04:44:34.242Z,99787.25
2023-04-17T04:45:36.859Z,99797.75
2023-04-17T04:46:39.974Z,99788.09
2023-04-17T04:47:42.618Z,99788.03
2023-04-17T04:48:44.840Z,99782.75
2023-04-17T04:49:47.973Z,99784.34
2023-04-17T04:50:53.348Z,99784.38
2023-04-17T04:51:55.943Z,99790.41
2023-04-17T04:53:03.838Z,99776.44
2023-04-17T04:54:17.507Z,99790.53
2023-04-17T04:55:26.588Z,99787.00
2023-04-17T04:56:32.952Z,99790.56
2023-04-17T04:57:36.285Z,99788.75
2023-04-17T04:58:38.771Z,99795.75
2023-04-17T04:59:41.160Z,99799.91
2023-04-17T05:01:09.486Z,99798.97
2023-04-17T05:02:16.299Z,99798.22
2023-04-17T05:03:19.440Z,99794.81
2023-04-17T05:04:23.066Z,99803.50
2023-04-17T05:05:29.766Z,99803.31
2023-04-17T05:06:32.042Z,99796.41
2023-04-17T05:07:38.263Z,99806.91
2023-04-17T05:08:42.858Z,99805.88
2023-04-17T05:09:47.568Z,99804.78
2023-04-17T05:10:51.802Z,99804.63
2023-04-17T05:11:54.054Z,99806.34
2023-04-17T05:12:57.088Z,99810.28
2023-04-17T05:13:59.286Z,99804.19
2023-04-17T05:15:05.326Z,99808.22
2023-04-17T05:16:08.322Z,99805.28
2023-04-17T05:17:10.575Z,99805.25
2023-04-17T05:18:12.704Z,99798.19
2023-04-17T05:19:16.419Z,99799.75
2023-04-17T05:20:28.446Z,99797.88
2023-04-17T05:21:33.863Z,99807.50
2023-04-17T05:22:38.176Z,99805.72
2023-04-17T05:23:44.753Z,99809.31
2023-04-17T05:24:46.960Z,99813.47
2023-04-17T05:25:49.437Z,99809.97
2023-04-17T05:26:53.429Z,99806.38
2023-04-17T05:27:55.959Z,99809.72
2023-04-17T05:28:58.191Z,99801.84
2023-04-17T05:30:05.150Z,99808.91
2023-04-17T05:31:07.822Z,99809.97
2023-04-17T05:32:14.533Z,99815.13
2023-04-17T05:33:26.534Z,99819.38
2023-04-17T05:34:32.505Z,99817.75
2023-04-17T05:35:35.726Z,99818.59
2023-04-17T05:36:37.883Z,99815.19
2023-04-17T05:37:40.897Z,99819.66
2023-04-17T05:38:45.501Z,99813.69
2023-04-17T05:39:48.354Z,99818.81
2023-04-17T05:40:52.349Z,99817.00
2023-04-17T05:41:54.562Z,99819.81
2023-04-17T05:42:56.749Z,99813.75
2023-04-17T05:43:59.699Z,99819.84
2023-04-17T05:45:03.515Z,99821.66
2023-04-17T05:46:05.988Z,99813.84
2023-04-17T05:47:08.213Z,99819.88
2023-04-17T05:48:12.118Z,99823.25
2023-04-17T05:49:14.336Z,99811.06
2023-04-17T05:50:16.730Z,99812.94
2023-04-17T05:51:18.930Z,99821.47
2023-04-17T05:52:21.102Z,99816.22
2023-04-17T05:53:23.921Z,99818.84
2023-04-17T05:54:30.912Z,99817.25
2023-04-17T05:55:34.325Z,99822.38
2023-04-17T05:56:39.175Z,99822.31
2023-04-17T05:57:41.427Z,99817.88
2023-04-17T05:58:43.659Z,99812.94
2023-04-17T05:59:46.181Z,99820.84
2023-04-17T06:00:49.320Z,99821.66
2023-04-17T06:01:53.578Z,99818.94
2023-04-17T06:02:57.650Z,99811.78
2023-04-17T06:04:08.272Z,99814.91
2023-04-17T06:05:10.980Z,99813.91
2023-04-17T06:06:13.433Z,99822.81
2023-04-17T06:07:16.017Z,99813.75
2023-04-17T06:08:18.229Z,99811.91
2023-04-17T06:09:21.351Z,99811.59
2023-04-17T06:10:24.817Z,99802.78
2023-04-17T06:11:27.148Z,99812.47
2023-04-17T06:12:29.439Z,99815.72
2023-04-17T06:13:32.102Z,99808.81
2023-04-17T06:14:34.685Z,99814.81
2023-04-17T06:15:40.928Z,99815.38
2023-04-17T06:16:44.368Z,99817.06
2023-04-17T06:17:46.648Z,99811.75
2023-04-17T06:18:48.795Z,99816.75
2023-04-17T06:19:51.533Z,99820.19
2023-04-17T06:20:53.700Z,99822.78
2023-04-17T06:21:56.358Z,99833.22
2023-04-17T06:22:58.702Z,99828.22
2023-04-17T06:24:00.994Z,99828.22
2023-04-17T06:25:03.582Z,99829.97
2023-04-17T06:26:06.661Z,99824.22
2023-04-17T06:27:09.949Z,99824.47
2023-04-17T06:28:12.437Z,99827.13
2023-04-17T06:29:15.522Z,99828.63
2023-04-17T06:30:19.174Z,99832.97
2023-04-17T06:31:27.631Z,99833.75
2023-04-17T06:32:30.474Z,99831.28
2023-04-17T06:33:32.914Z,99830.72
2023-04-17T06:34:38.174Z,99834.16
2023-04-17T06:35:45.915Z,99840.00
2023-04-17T06:37:00.560Z,99833.28
2023-04-17T06:38:03.178Z,99832.56
2023-04-17T06:39:05.954Z,99837.47
2023-04-17T06:40:08.947Z,99832.09
2023-04-17T06:41:11.193Z,99829.22
2023-04-17T06:42:16.472Z,99824.34
2023-04-17T06:43:18.667Z,99835.09
2023-04-17T06:44:20.874Z,99835.75
2023-04-17T06:45:24.768Z,99822.16
2023-04-17T06:46:26.974Z,99829.78
2023-04-17T06:47:29.577Z,99823.00
2023-04-17T06:48:32.545Z,99835.19
2023-04-17T06:49:36.285Z,99840.38
2023-04-17T06:50:38.587Z,99830.47
2023-04-17T06:51:45.655Z,99831.09
2023-04-17T06:52:47.816Z,99830.72
2023-04-17T06:53:50.071Z,99834.63
2023-04-17T06:54:56.097Z,99843.19
2023-04-17T06:55:58.390Z,99845.53
2023-04-17T06:57:00.821Z,99840.91
2023-04-17T06:58:04.212Z,99846.25
2023-04-17T06:59:07.001Z,99836.94
2023-04-17T07:00:09.998Z,99831.78
2023-04-17T07:01:14.016Z,99844.34
2023-04-17T07:02:16.472Z,99846.88
2023-04-17T07:03:19.079Z,99850.28
2023-04-17T07:04:21.489Z,99849.84
2023-04-17T07:05:23.858Z,99841.59
2023-04-17T07:06:26.602Z,99849.78
2023-04-17T07:07:30.676Z,99840.53
2023-04-17T07:08:33.101Z,99845.34
2023-04-17T07:09:35.466Z,99851.28
2023-04-17T07:10:37.634Z,99846.50
2023-04-17T07:11:39.827Z,99845.22
2023-04-17T07:12:41.972Z,99848.03
2023-04-17T07:13:44.096Z,99849.47
2023-04-17T07:14:46.426Z,99851.16
2023-04-17T07:15:54.024Z,99853.25
2023-04-17T07:16:56.271Z,99850.38
2023-04-17T07:17:58.632Z,99835.66
2023-04-17T07:19:00.839Z,99845.53
2023-04-17T07:20:05.419Z,99845.31
2023-04-17T07:21:07.713Z,99846.50
2023-04-17T07:22:10.046Z,99852.03
2023-04-17T07:23:12.319Z,99854.28
2023-04-17T07:24:14.537Z,99858.13
2023-04-17T07:25:16.741Z,99859.03
2023-04-17T07:26:18.962Z,99857.47
2023-04-17T07:27:21.873Z,99844.00
2023-04-17T07:28:24.995Z,99838.81
2023-04-17T07:29:27.271Z,99846.94
2023-04-17T07:30:29.529Z,99846.22
2023-04-17T07:31:31.973Z,99863.31
2023-04-17T07:32:34.347Z,99844.19
2023-04-17T07:33:40.009Z,99859.84
2023-04-17T07:34:42.898Z,99856.66
2023-04-17T07:35:45.109Z,99851.84
2023-04-17T07:36:49.592Z,99857.81
2023-04-17T07:37:51.829Z,99857.28
2023-04-17T07:38:54.146Z,99862.28
2023-04-17T07:39:56.316Z,99866.09
2023-04-17T07:40:58.813Z,99872.56
2023-04-17T07:42:02.927Z,99863.78
2023-04-17T07:43:05.328Z,99871.13
2023-04-17T07:44:07.515Z,99861.59
2023-04-17T07:45:10.568Z,99865.00
2023-04-17T07:46:12.884Z,99870.03
2023-04-17T07:47:15.347Z,99868.38
2023-04-17T07:48:18.966Z,99870.19
2023-04-17T07:49:21.121Z,99875.06
2023-04-17T07:50:23.618Z,99875.09
2023-04-17T07:51:26.206Z,99877.59
2023-04-17T07:52:28.870Z,99869.00
2023-04-17T07:53:31.377Z,99880.59
2023-04-17T07:54:33.662Z,99872.25
2023-04-17T07:55:35.919Z,99873.84
2023-04-17T07:56:38.189Z,99879.25
2023-04-17T07:57:42.672Z,99877.09
2023-04-17T07:58:51.677Z,99880.50
2023-04-17T07:59:53.885Z,99873.72
2023-04-17T08:00:56.122Z,99872.44
2023-04-17T08:01:58.542Z,99883.50
2023-04-17T08:03:02.023Z,99881.16
2023-04-17T08:04:04.964Z,99879.88
2023-04-17T08:05:08.026Z,99884.69
2023-04-17T08:06:11.343Z,99885.78
2023-04-17T08:07:14.317Z,99883.34
2023-04-17T08:08:16.452Z,99888.56
2023-04-17T08:09:18.747Z,99885.63
2023-04-17T08:10:20.971Z,99882.91
2023-04-17T08:11:23.166Z,99885.44
2023-04-17T08:12:25.379Z,99889.91
2023-04-17T08:13:30.892Z,99892.69
2023-04-17T08:14:33.136Z,99885.91
2023-04-17T08:15:40.954Z,99888.88
2023-04-17T08:16:44.458Z,99888.03
2023-04-17T08:17:46.645Z,99897.78
2023-04-17T08:18:48.880Z,99893.03
2023-04-17T08:19:53.398Z,99894.44
2023-04-17T08:20:55.594Z,99904.00
2023-04-17T08:22:03.380Z,99898.28
2023-04-17T08:23:05.975Z,99898.44
2023-04-17T08:24:08.234Z,99889.63
2023-04-17T08:25:11.181Z,99913.78
2023-04-17T08:26:13.513Z,99897.66
2023-04-17T08:27:15.901Z,99900.78
2023-04-17T08:28:18.274Z,99902.72
2023-04-17T08:29:20.628Z,99897.66
2023-04-17T08:30:23.923Z,99905.16
2023-04-17T08:31:26.595Z,99901.13
2023-04-17T08:32:29.023Z,99901.84
2023-04-17T08:33:31.544Z,99906.38
2023-04-17T08:34:34.105Z,99907.00
2023-04-17T08:35:36.690Z,99910.38
2023-04-17T08:36:38.889Z,99901.75
2023-04-17T08:37:42.207Z,99905.72
2023-04-17T08:38:45.128Z,99899.91
2023-04-17T08:39:52.245Z,99905.56
2023-04-17T08:40:59.047Z,99896.97
2023-04-17T08:42:06.740Z,99898.13
2023-04-17T08:43:16.743Z,99904.50
2023-04-17T08:44:21.402Z,99900.44
2023-04-17T08:45:24.616Z,99902.25
2023-04-17T08:46:27.655Z,99893.59
2023-04-17T08:47:29.937Z,99899.00
2023-04-17T08:48:32.241Z,99905.47
2023-04-17T08:49:35.599Z,99901.28
2023-04-17T08:50:37.908Z,99897.13
2023-04-17T08:51:40.538Z,99903.63
2023-04-17T08:52:44.593Z,99905.84
2023-04-17T08:53:46.776Z,99907.31
2023-04-17T08:54:51.270Z,99898.03
2023-04-17T08:55:53.705Z,99898.41
2023-04-17T08:56:57.530Z,99903.06
2023-04-17T08:58:03.481Z,99903.78
2023-04-17T08:59:05.726Z,99909.47
2023-04-17T09:00:12.113Z,99909.47
2023-04-17T09:01:19.884Z,99907.13
2023-04-17T09:02:23.235Z,99903.72
2023-04-17T09:03:43.080Z,99917.00
2023-04-17T09:04:47.133Z,99906.66
2023-04-17T09:05:49.487Z,99918.50
2023-04-17T09:06:54.129Z,99906.69
2023-04-17T09:08:17.585Z,99912.44
2023-04-17T09:09:19.799Z,99917.19
2023-04-17T09:10:38.491Z,99909.66
2023-04-17T09:11:40.729Z,99915.47
2023-04-17T09:12:59.300Z,99912.66
2023-04-17T09:14:01.558Z,99915.59
2023-04-17T09:15:16.328Z,99909.13
2023-04-17T09:16:21.864Z,99908.66
2023-04-17T09:17:34.819Z,99900.94
2023-04-17T09:18:37.999Z,99908.00
2023-04-17T09:20:11.944Z,99897.53
2023-04-17T09:21:16.716Z,99907.06
2023-04-17T09:22:21.109Z,99909.63
2023-04-17T09:23:23.675Z,99909.91
2023-04-17T09:24:36.284Z,99910.88
2023-04-17T09:25:38.517Z,99906.59
2023-04-17T09:26:40.728Z,99915.19
2023-04-17T09:27:43.141Z,99910.25
2023-04-17T09:29:14.570Z,99905.66
2023-04-17T09:30:17.197Z,99910.50
2023-04-17T09:31:19.389Z,99908.06
2023-04-17T09:32:21.681Z,99912.72
2023-04-17T09:33:23.983Z,99906.44
2023-04-17T09:34:26.150Z,99900.41
2023-04-17T09:35:28.396Z,99897.78
2023-04-17T09:36:33.045Z,99906.56
2023-04-17T09:37:53.136Z,99906.34
2023-04-17T09:38:55.929Z,99913.13
2023-04-17T09:40:00.007Z,99916.16
2023-04-17T09:41:02.323Z,99913.41
2023-04-17T09:42:06.148Z,99911.38
2023-04-17T09:43:10.576Z,99911.69
2023-04-17T09:44:25.623Z,99910.28
2023-04-17T09:45:35.558Z,99906.78
2023-04-17T09:46:45.814Z,99909.63
2023-04-17T09:47:48.774Z,99915.72
2023-04-17T09:48:51.225Z,99913.16
2023-04-17T09:49:53.925Z,99905.00
2023-04-17T09:50:56.758Z,99916.31
2023-04-17T09:51:59.379Z,99910.06
2023-04-17T09:53:02.888Z,99910.22
2023-04-17T09:54:06.955Z,99909.66
2023-04-17T09:55:11.281Z,99912.34
2023-04-17T09:56:13.619Z,99900.81
2023-04-17T09:57:16.439Z,99915.44
2023-04-17T09:58:18.993Z,99916.38
2023-04-17T09:59:22.766Z,99906.56
2023-04-17T10:00:29.436Z,99907.69
2023-04-17T10:01:33.788Z,99911.19
2023-04-17T10:02:36.638Z,99910.28
2023-04-17T10:03:40.310Z,99913.41
2023-04-17T10:04:44.787Z,99910.28
2023-04-17T10:05:47.300Z,99914.97
2023-04-17T10:06:50.284Z,99910.66
2023-04-17T10:07:52.732Z,99915.94
2023-04-17T10:08:55.097Z,99911.06
2023-04-17T10:09:57.223Z,99909.94
2023-04-17T10:11:05.922Z,99915.22
2023-04-17T10:12:13.291Z,99909.75
2023-04-17T10:13:16.627Z,99911.81
2023-04-17T10:14:32.613Z,99905.72
2023-04-17T10:15:35.513Z,99897.56
2023-04-17T10:16:40.000Z,99910.94
2023-04-17T10:17:42.417Z,99904.75
2023-04-17T10:18:44.683Z,99895.81
2023-04-17T10:19:46.984Z,99909.88
2023-04-17T10:20:50.492Z,99901.84
2023-04-17T10:22:14.230Z,99900.28
2023-04-17T10:23:30.687Z,99903.72
2023-04-17T10:24:32.866Z,99898.94
2023-04-17T10:25:35.330Z,99894.47
2023-04-17T10:26:37.881Z,99903.00
2023-04-17T10:27:42.672Z,99893.41
2023-04-17T10:28:49.356Z,99892.22
2023-04-17T10:29:52.156Z,99895.72
2023-04-17T10:30:55.190Z,99888.44
2023-04-17T10:32:09.959Z,99894.78
2023-04-17T10:33:15.750Z,99894.38
2023-04-17T10:34:51.804Z,99888.41
2023-04-17T10:35:54.154Z,99888.34
2023-04-17T10:36:56.558Z,99895.41
2023-04-17T10:38:03.690Z,99894.25
2023-04-17T10:39:16.641Z,99897.28
2023-04-17T10:40:25.792Z,99895.16
2023-04-17T10:41:31.856Z,99887.66
2023-04-17T10:42:34.069Z,99895.59
2023-04-17T10:43:40.775Z,99896.22
2023-04-17T10:44:45.404Z,99892.78
2023-04-17T10:46:01.705Z,99895.84
2023-04-17T10:47:07.624Z,99900.44
2023-04-17T10:48:20.473Z,99891.50
2023-04-17T10:49:22.743Z,99893.16
2023-04-17T10:50:28.593Z,99889.81
2023-04-17T10:51:32.107Z,99900.34
2023-04-17T10:52:41.434Z,99896.00
2023-04-17T10:53:44.776Z,99889.84
2023-04-17T10:55:07.770Z,99891.91
2023-04-17T10:56:24.318Z,99890.75
2023-04-17T10:57:53.965Z,99889.53
2023-04-17T10:58:57.735Z,99891.41
2023-04-17T11:00:13.938Z,99897.31
2023-04-17T11:01:16.339Z,99901.00
2023-04-17T11:02:33.886Z,99892.75
2023-04-17T11:03:37.434Z,99885.16
2023-04-17T11:04:39.910Z,99891.50
2023-04-17T11:05:48.396Z,99887.44
2023-04-17T11:06:55.443Z,99883.09
2023-04-17T11:07:59.092Z,99878.16
2023-04-17T11:09:01.448Z,99884.16
2023-04-17T11:10:06.973Z,99879.06
2023-04-17T11:11:11.939Z,99876.69
2023-04-17T11:12:14.167Z,99884.38
2023-04-17T11:13:16.494Z,99888.94
2023-04-17T11:14:21.433Z,99876.28
2023-04-17T11:15:27.692Z,99882.06
2023-04-17T11:16:29.877Z,99880.47
2023-04-17T11:17:32.511Z,99883.81
2023-04-17T11:18:34.750Z,99878.19
2023-04-17T11:19:37.062Z,99885.78
2023-04-17T11:20:40.773Z,99882.94
2023-04-17T11:21:44.098Z,99882.94
2023-04-17T11:22:46.350Z,99877.97
2023-04-17T11:23:54.682Z,99880.31
2023-04-17T11:24:59.958Z,99883.53
2023-04-17T11:26:02.200Z,99876.81
2023-04-17T11:27:04.678Z,99875.78
2023-04-17T11:28:07.133Z,99873.88
2023-04-17T11:29:17.264Z,99879.94
2023-04-17T11:30:28.237Z,99890.44
2023-04-17T11:31:30.535Z,99881.69
2023-04-17T11:32:36.440Z,99877.28
2023-04-17T11:33:39.215Z,99884.50
2023-04-17T11:34:41.799Z,99886.19
2023-04-17T11:35:44.023Z,99889.25
2023-04-17T11:36:57.634Z,99879.56
2023-04-17T11:38:20.582Z,99882.84
2023-04-17T11:39:24.958Z,99873.00
2023-04-17T11:40:30.342Z,99886.97
2023-04-17T11:41:39.417Z,99878.84
2023-04-17T11:42:45.792Z,99880.69
2023-04-17T11:43:51.176Z,99878.97
2023-04-17T11:45:04.217Z,99881.44
2023-04-17T11:46:06.796Z,99875.03
2023-04-17T11:47:08.949Z,99871.31
2023-04-17T11:48:12.801Z,99871.75
2023-04-17T11:49:14.986Z,99877.31
2023-04-17T11:50:17.771Z,99879.22
2023-04-17T11:51:20.535Z,99887.66
2023-04-17T11:52:22.816Z,99875.78
2023-04-17T11:53:26.155Z,99883.94
2023-04-17T11:54:34.881Z,99878.94
2023-04-17T11:55:37.047Z,99874.53
2023-04-17T11:56:39.159Z,99880.22
2023-04-17T11:57:45.183Z,99882.06
2023-04-17T11:59:08.804Z,99882.16
2023-04-17T12:00:14.802Z,99879.56
2023-04-17T12:01:21.117Z,99878.06
2023-04-17T12:02:33.460Z,99876.13
2023-04-17T12:03:36.344Z,99874.91
2023-04-17T12:04:39.971Z,99877.34
2023-04-17T12:05:42.545Z,99879.91
2023-04-17T12:06:44.704Z,99877.69
2023-04-17T12:07:46.879Z,99885.97
2023-04-17T12:08:51.343Z,99879.88
2023-04-17T12:09:57.825Z,99876.31
2023-04-17T12:11:00.285Z,99884.22
2023-04-17T12:12:06.839Z,99875.59
2023-04-17T12:13:11.319Z,99883.09
2023-04-17T12:14:13.893Z,99885.56
2023-04-17T12:15:16.274Z,99883.56
2023-04-17T12:16:18.660Z,99886.63
2023-04-17T12:17:21.138Z,99875.66
2023-04-17T12:18:23.420Z,99883.56
2023-04-17T12:19:27.933Z,99875.00
2023-04-17T12:20:30.143Z,99872.31
2023-04-17T12:21:32.347Z,99884.91
2023-04-17T12:22:34.525Z,99874.81
2023-04-17T12:23:36.709Z,99882.94
2023-04-17T12:24:38.900Z,99877.97
2023-04-17T12:25:41.068Z,99886.66
2023-04-17T12:26:47.377Z,99880.19
2023-04-17T12:27:49.561Z,99887.91
2023-04-17T12:28:51.897Z,99886.56
2023-04-17T12:29:54.035Z,99888.88
2023-04-17T12:30:56.412Z,99888.78
2023-04-17T12:31:58.681Z,99889.63
2023-04-17T12:33:01.426Z,99879.03
2023-04-17T12:34:03.570Z,99885.03
2023-04-17T12:35:06.205Z,99886.94
2023-04-17T12:36:08.916Z,99882.63